Leslie, GA (31764)

9:35 PM EDT on July 28, 2014 (GMT -0400)
Cobb (KGACOBB2) Elev 285 ft | 31.98 °N, 83.96 °W | Change Station

Current weather conditions updated 11 minutes ago

Heavy Thunderstorms and Rain
Heavy Thunderstorm Rain
78.9 °F
Feels Like 82 °F
N
2.0
Wind Variable Wind from WNW
Gusts 6.0 mph

Tomorrow is forecast to be Cooler than today.

Today
High -- | Low -- °F
--% Chance of Precip.
Yesterday
High -- | Low -- °F
Precip. -- in
6:49 AM 8:36 PM
Waxing Crescent, 4% visible
Pressure 29.92 in
Visibility 2.5 miles
Clouds Scattered Clouds 700 ft
Scattered Clouds 2100 ft
Mostly Cloudy 4200 ft
Heat Index 82 °F
Dew Point 74 °F
Humidity 85%
Rainfall 0.03 in
Snow Depth Not available.
UV 0 out of 12
Pollen 6.00 out of 12
Air Quality Not available.
Flu Activity Not available.
METAR KACJ 290115Z AUTO 22012G31KT 2 1/2SM +VCTSRA SCT007 SCT021 BKN042 25/22 A2992 RMK AO2 VIS 1V5

More Conditions Fewer Conditions

Pressure 29.92 in
Visibility 2.5 miles
Clouds Scattered Clouds 700 ft
Scattered Clouds 2100 ft
Mostly Cloudy 4200 ft
Heat Index 82 °F
Dew Point 74 °F
Humidity 85%
Rainfall 0.03 in
Snow Depth Not available.
UV 0 out of 12
Pollen 6.00 out of 12
Air Quality Not available.
Flu Activity Not available.
METAR KACJ 290115Z AUTO 22012G31KT 2 1/2SM +VCTSRA SCT007 SCT021 BKN042 25/22 A2992 RMK AO2 VIS 1V5

More Conditions Fewer Conditions

10-Day Weather Forecast

Almanac

Astronomy

Jul. 28, 2014 Rise Set
Actual Time 6:49 AM EDT 8:36 PM EDT
Civil Twilight 6:22 AM EDT 9:02 PM EDT
Nautical Twilight 5:49 AM EDT 9:35 PM EDT
Astronomical Twilight 5:15 AM EDT 10:09 PM EDT
Moon 8:20 AM EDT (7/28) 9:28 PM EDT (7/28)
Length of Visible Light 14h 40m
Length of Day
13h 47m
Tomorrow will be 1m 22s shorter.
Waxing Crescent, 4% of the Moon is Illuminated
Today
Waxing Crescent
Aug 3
First Quarter
Aug 10
Full
Aug 17
Last Quarter
Aug 25
New

Today's Extremes

State Highs State Lows

Community

WunderPhotos

Upload Photos

1,738,578 photos uploaded!

WunderBlogs® & News

Nearby

Snow Depth

Station Depth Elevation
No new snow has been reported.

Earthquake Activity

City Distance Mag. Time & Date
No recent earthquake activity has been reported nearby.
Minimum magnitude displayed is 2.5.

Coastal Water Temperatures

Place Temperature
No Stations Reporting

Nearby Weather Stations

Station Location Temp. Heat Index Dew Point Humidity Wind Precip. Elev Updated Type
Cobb, Cobb, GA 78.9 °F 82 °F 74 °F 85% WNW  at  2.0 mph 0.00 in / hr 285 ft 9:23 PM EDT Normal
Wildwood Circle, Americus, GA 76.5 °F 76 °F 76 °F 99% WSW  at  0.0 mph 0.00 in / hr 402 ft 9:30 PM EDT Normal
RAWS AMERICUS/PLAINS GA, Americus, GA 78 °F 80 °F 72 °F 81% SSW  at  5 mph 0.00 in / hr 456 ft 9:03 PM EDT MADIS
Crisp EMA, Cordele, GA 77.1 °F 78 °F 75 °F 92% WSW  at  4.0 mph 0.00 in / hr 315 ft 9:30 PM EDT Normal
Grand Island Club, Albany, GA 78.1 °F 81 °F 73 °F 84% SSE  at  0.0 mph 0.00 in / hr 259 ft 9:34 PM EDT Normal

Show More Stations Show Fewer Stations